Time;durP1;ratioP1;P1;durP2;ratioP2;P2;SDS_P1;SDS_P2;PMS_P1;PMS_P2;Temp;Humidity;BMP_temperature;BMP_pressure;BME280_temperature;BME280_humidity;BME280_pressure;Samples;Min_cycle;Max_cycle;Signal;HPM_P1;HPM_P2
2023/08/22 00:01:54;;;;;;;10.07;9.10;;;25.40;99.90;;;;;;5045831;28;20699;-78
2023/08/22 00:04:27;;;;;;;9.13;8.30;;;25.40;99.90;;;;;;5044548;28;20441;-77
2023/08/22 00:06:55;;;;;;;10.33;9.27;;;25.30;99.90;;;;;;5052349;28;20461;-75
2023/08/22 00:09:24;;;;;;;10.20;9.37;;;25.30;99.90;;;;;;5058945;28;20453;-76
2023/08/22 00:11:51;;;;;;;8.87;8.00;;;25.30;99.90;;;;;;5056492;28;20449;-77
2023/08/22 00:14:21;;;;;;;10.23;8.90;;;25.20;99.90;;;;;;5056795;28;20851;-76
2023/08/22 00:16:49;;;;;;;9.80;9.00;;;25.20;99.90;;;;;;5056584;28;20548;-77
2023/08/22 00:19:20;;;;;;;10.20;9.00;;;25.20;99.90;;;;;;5056865;28;20486;-77
2023/08/22 00:21:48;;;;;;;9.30;8.50;;;25.10;99.90;;;;;;5058492;28;20453;-78
2023/08/22 00:24:16;;;;;;;9.60;8.90;;;25.10;99.90;;;;;;5056045;28;20456;-76
2023/08/22 00:26:44;;;;;;;10.80;9.90;;;25.00;99.90;;;;;;5057174;28;20469;-76
2023/08/22 00:29:11;;;;;;;10.13;9.33;;;25.00;99.90;;;;;;5055073;28;20445;-76
2023/08/22 00:31:40;;;;;;;9.47;8.70;;;25.00;99.90;;;;;;5055097;28;20487;-76
2023/08/22 00:34:08;;;;;;;9.27;8.57;;;24.90;99.90;;;;;;5054366;28;20511;-76
2023/08/22 00:36:35;;;;;;;12.70;8.60;;;24.90;99.90;;;;;;5055333;28;20501;-77
2023/08/22 00:39:03;;;;;;;9.40;8.70;;;24.90;99.90;;;;;;5055302;28;20469;-75
2023/08/22 00:41:32;;;;;;;8.90;8.10;;;24.80;99.90;;;;;;5053544;28;21048;-78
2023/08/22 00:44:03;;;;;;;9.20;8.27;;;24.80;99.90;;;;;;5054377;28;20941;-77
2023/08/22 00:46:33;;;;;;;8.00;7.50;;;24.70;99.90;;;;;;5055312;28;20450;-77
2023/08/22 00:49:05;;;;;;;8.90;8.20;;;24.70;99.90;;;;;;5056242;28;20475;-76
2023/08/22 00:51:33;;;;;;;8.50;7.87;;;24.70;99.90;;;;;;5055940;28;20445;-76
2023/08/22 00:54:02;;;;;;;9.03;8.37;;;24.70;99.90;;;;;;5054793;28;20457;-76
2023/08/22 00:56:31;;;;;;;9.80;8.70;;;24.30;99.90;;;;;;5057513;28;20465;-77
2023/08/22 00:58:59;;;;;;;9.03;8.27;;;24.20;99.90;;;;;;5058231;28;20473;-77
2023/08/22 01:01:30;;;;;;;8.37;7.77;;;24.50;99.90;;;;;;5057853;28;20446;-77
2023/08/22 01:03:58;;;;;;;9.00;8.20;;;24.50;99.90;;;;;;5058108;28;20450;-77
2023/08/22 01:06:45;;;;;;;8.90;8.23;;;24.50;99.90;;;;;;5053976;28;20453;-77
2023/08/22 01:09:20;;;;;;;8.83;8.13;;;24.50;99.90;;;;;;5054689;28;20473;-76
2023/08/22 01:11:50;;;;;;;9.77;8.83;;;24.40;99.90;;;;;;5054221;28;20483;-76
2023/08/22 01:14:29;;;;;;;9.80;8.90;;;24.40;99.90;;;;;;5054639;28;20468;-75
2023/08/22 01:16:58;;;;;;;8.80;8.00;;;24.40;99.90;;;;;;5054210;28;20968;-77
2023/08/22 01:19:26;;;;;;;8.77;8.07;;;24.20;99.90;;;;;;5053596;28;20505;-76
2023/08/22 01:22:02;;;;;;;10.07;9.00;;;24.20;99.90;;;;;;5052798;28;20456;-79
2023/08/22 01:24:36;;;;;;;9.63;9.03;;;24.20;99.90;;;;;;5053337;28;20449;-77
2023/08/22 01:27:05;;;;;;;9.93;9.13;;;24.20;99.90;;;;;;5052838;28;20480;-76
2023/08/22 01:29:46;;;;;;;8.50;7.80;;;24.20;99.90;;;;;;5053461;28;20449;-79
2023/08/22 01:32:23;;;;;;;9.37;8.67;;;24.20;99.90;;;;;;5053264;28;20449;-79
2023/08/22 01:34:55;;;;;;;8.40;7.80;;;24.10;99.90;;;;;;5054929;28;20446;-77
2023/08/22 01:37:25;;;;;;;9.40;8.60;;;24.10;99.90;;;;;;5056148;28;20473;-75
2023/08/22 01:39:57;;;;;;;9.43;8.63;;;24.10;99.90;;;;;;5056608;28;20512;-76
2023/08/22 01:42:29;;;;;;;9.67;8.83;;;23.90;99.90;;;;;;5056652;28;21015;-76
2023/08/22 01:45:02;;;;;;;9.30;8.40;;;23.90;99.90;;;;;;5060156;28;20966;-75
2023/08/22 01:47:40;;;;;;;9.10;8.40;;;23.90;99.90;;;;;;5062090;28;20540;-78
2023/08/22 01:50:15;;;;;;;9.73;8.93;;;23.90;99.90;;;;;;5059409;28;20949;-76
2023/08/22 01:52:45;;;;;;;8.90;8.20;;;23.90;99.90;;;;;;5056835;28;20524;-75
2023/08/22 01:55:14;;;;;;;9.00;8.00;;;23.80;99.90;;;;;;5058853;28;20528;-78
2023/08/22 01:57:42;;;;;;;9.67;8.67;;;24.00;99.90;;;;;;5057504;28;20478;-75
2023/08/22 02:00:12;;;;;;;9.90;9.17;;;23.90;99.90;;;;;;5057675;28;21046;-80
2023/08/22 02:02:42;;;;;;;10.17;9.20;;;23.80;99.90;;;;;;5056489;28;20458;-78
2023/08/22 02:05:10;;;;;;;9.30;8.57;;;23.80;99.90;;;;;;5057958;28;20506;-76
2023/08/22 02:07:38;;;;;;;10.00;9.07;;;23.80;99.90;;;;;;5057471;28;20997;-76
2023/08/22 02:10:12;;;;;;;10.03;9.23;;;23.80;99.90;;;;;;5055580;28;20585;-77
2023/08/22 02:12:41;;;;;;;9.93;9.13;;;24.10;99.90;;;;;;5054485;28;20515;-75
2023/08/22 02:15:14;;;;;;;9.43;8.73;;;23.70;99.90;;;;;;5056077;28;20436;-77
2023/08/22 02:17:51;;;;;;;9.60;8.77;;;23.70;99.90;;;;;;5057794;28;20457;-78
2023/08/22 02:20:19;;;;;;;10.40;9.40;;;23.70;99.90;;;;;;5057459;28;20479;-75
2023/08/22 02:22:48;;;;;;;11.80;8.67;;;23.60;99.90;;;;;;5056045;28;20457;-75
2023/08/22 02:25:17;;;;;;;9.00;8.37;;;23.50;99.90;;;;;;5056984;28;20457;-77
2023/08/22 02:27:48;;;;;;;10.60;9.80;;;23.50;99.90;;;;;;5059260;28;20461;-75
2023/08/22 02:30:18;;;;;;;9.60;8.80;;;23.40;99.90;;;;;;5066648;28;20436;-75
2023/08/22 02:32:47;;;;;;;9.90;8.87;;;23.40;99.90;;;;;;5068601;28;20431;-77
2023/08/22 02:35:19;;;;;;;9.50;8.80;;;23.30;99.90;;;;;;5070147;28;21135;-76
2023/08/22 02:37:53;;;;;;;9.90;8.80;;;23.30;99.90;;;;;;5070443;28;20470;-77
2023/08/22 02:40:24;;;;;;;9.40;8.60;;;23.30;99.90;;;;;;5074986;28;20473;-77
2023/08/22 02:42:52;;;;;;;9.70;9.00;;;23.30;99.90;;;;;;5074218;28;20442;-76
2023/08/22 02:45:20;;;;;;;12.67;7.90;;;23.30;99.90;;;;;;5074828;28;20445;-76
2023/08/22 02:47:48;;;;;;;9.90;9.07;;;23.30;99.90;;;;;;5073169;28;20503;-74
2023/08/22 02:50:15;;;;;;;8.93;8.23;;;23.30;99.90;;;;;;5074106;28;20437;-78
2023/08/22 02:52:49;;;;;;;8.70;7.80;;;23.30;99.90;;;;;;5071322;28;20441;-77
2023/08/22 02:55:24;;;;;;;9.37;8.67;;;23.30;99.90;;;;;;5068961;28;20537;-76
2023/08/22 02:57:53;;;;;;;10.23;9.30;;;23.20;99.90;;;;;;5067775;28;20457;-75
2023/08/22 03:00:21;;;;;;;10.47;9.57;;;23.20;99.90;;;;;;5068668;28;20496;-77
2023/08/22 03:02:49;;;;;;;10.50;9.50;;;23.20;99.90;;;;;;5067117;28;20477;-75
2023/08/22 03:05:20;;;;;;;9.97;9.07;;;23.20;99.90;;;;;;5068673;28;20507;-75
2023/08/22 03:07:53;;;;;;;10.40;9.47;;;23.00;99.90;;;;;;5069159;28;20469;-75
2023/08/22 03:10:21;;;;;;;11.30;10.10;;;23.00;99.90;;;;;;5069705;28;20441;-74
2023/08/22 03:13:00;;;;;;;11.33;10.40;;;23.00;99.90;;;;;;5067978;28;20861;-78
2023/08/22 03:15:37;;;;;;;11.30;10.20;;;23.10;99.90;;;;;;5068697;28;20534;-76
2023/08/22 03:18:20;;;;;;;11.80;10.70;;;23.00;99.90;;;;;;5068114;28;20449;-75
2023/08/22 03:20:51;;;;;;;12.10;10.83;;;23.00;99.90;;;;;;5065852;28;20445;-76
2023/08/22 03:23:21;;;;;;;12.37;10.90;;;23.00;99.90;;;;;;5061040;28;20446;-76
2023/08/22 03:26:03;;;;;;;12.50;11.50;;;23.00;99.90;;;;;;5061237;28;20868;-78
2023/08/22 03:28:33;;;;;;;13.03;11.90;;;23.00;99.90;;;;;;5060509;28;20570;-76
2023/08/22 03:31:04;;;;;;;12.27;11.23;;;23.00;99.90;;;;;;5062097;28;20472;-76
2023/08/22 03:33:37;;;;;;;12.60;11.40;;;23.00;99.90;;;;;;5061499;28;20545;-76
2023/08/22 03:36:12;;;;;;;12.13;11.13;;;22.90;99.90;;;;;;5063991;28;20474;-76
2023/08/22 03:38:51;;;;;;;12.17;11.07;;;22.90;99.90;;;;;;5062542;28;20453;-77
2023/08/22 03:41:37;;;;;;;12.83;11.53;;;22.90;99.90;;;;;;5061567;28;20471;-76
2023/08/22 03:44:08;;;;;;;12.87;11.87;;;22.80;99.90;;;;;;5060387;28;20457;-76
2023/08/22 03:46:39;;;;;;;13.20;12.20;;;22.80;99.90;;;;;;5058701;28;20473;-77
2023/08/22 03:49:14;;;;;;;12.87;11.57;;;22.80;99.90;;;;;;5057824;28;20461;-75
2023/08/22 03:51:42;;;;;;;13.83;12.67;;;22.80;99.90;;;;;;5038478;28;20459;-75
2023/08/22 03:54:14;;;;;;;12.97;11.67;;;22.80;99.90;;;;;;5055691;28;20461;-75
2023/08/22 03:56:46;;;;;;;13.40;12.20;;;22.70;99.90;;;;;;5056910;28;20464;-76
2023/08/22 03:59:38;;;;;;;13.23;12.00;;;22.80;99.90;;;;;;5054884;28;20537;-76
2023/08/22 04:02:27;;;;;;;13.67;11.87;;;22.80;99.90;;;;;;5052094;28;20473;-74
2023/08/22 04:05:06;;;;;;;13.57;12.50;;;22.70;99.90;;;;;;5042816;28;20453;-77
2023/08/22 04:07:40;;;;;;;13.93;12.83;;;22.70;99.90;;;;;;5059448;28;20497;-77
2023/08/22 04:10:24;;;;;;;13.57;12.50;;;22.70;99.90;;;;;;5059294;28;20450;-76
2023/08/22 04:16:00;;;;;;;13.57;11.03;;;22.80;99.90;;;;;;5048503;28;20453;-76
2023/08/22 04:18:30;;;;;;;12.13;11.00;;;22.70;99.90;;;;;;5057749;28;20453;-78
2023/08/22 04:21:00;;;;;;;13.20;11.90;;;22.60;99.90;;;;;;5057388;28;20552;-74
2023/08/22 04:23:38;;;;;;;13.50;11.30;;;22.60;99.90;;;;;;5057748;28;20450;-76
2023/08/22 04:26:20;;;;;;;12.03;11.03;;;22.60;99.90;;;;;;5056693;28;20538;-74
2023/08/22 04:29:05;;;;;;;13.00;11.93;;;22.60;99.90;;;;;;5056035;28;20440;-76
2023/08/22 04:32:03;;;;;;;14.20;12.97;;;22.50;99.90;;;;;;5057012;28;20438;-75
2023/08/22 04:34:35;;;;;;;14.23;12.70;;;22.50;99.90;;;;;;5049382;28;20473;-78
2023/08/22 04:37:10;;;;;;;13.83;12.50;;;22.50;99.90;;;;;;5057662;28;20527;-76
2023/08/22 04:39:38;;;;;;;13.20;12.00;;;22.20;99.90;;;;;;5057389;28;20846;-77
2023/08/22 04:42:07;;;;;;;13.87;12.60;;;22.40;99.90;;;;;;5056929;28;20438;-74
2023/08/22 04:44:39;;;;;;;14.30;13.03;;;22.40;99.90;;;;;;5056188;28;20445;-74
2023/08/22 04:47:08;;;;;;;13.57;12.17;;;22.40;99.90;;;;;;5057466;28;20460;-76
2023/08/22 04:49:37;;;;;;;13.80;12.50;;;22.40;99.90;;;;;;5056762;28;20504;-79
2023/08/22 04:52:07;;;;;;;13.53;12.23;;;22.40;99.90;;;;;;5057420;28;20480;-77
2023/08/22 04:57:28;;;;;;;13.50;12.27;;;22.40;99.90;;;;;;5054743;28;20453;-75
2023/08/22 05:00:14;;;;;;;15.07;13.87;;;22.40;99.90;;;;;;5059228;28;20482;-77
2023/08/22 05:02:51;;;;;;;14.80;13.30;;;22.40;99.90;;;;;;5049217;28;20473;-75
2023/08/22 05:05:23;;;;;;;15.60;14.13;;;22.30;99.90;;;;;;5058043;28;20528;-76
2023/08/22 05:08:11;;;;;;;14.60;13.30;;;22.20;99.90;;;;;;5039603;28;20442;-75
2023/08/22 05:11:26;;;;;;;14.53;13.30;;;22.20;99.90;;;;;;5041348;28;20445;-75
2023/08/22 05:13:57;;;;;;;15.40;14.10;;;22.30;99.90;;;;;;5039437;28;20503;-76
2023/08/22 05:16:30;;;;;;;14.10;12.80;;;22.30;99.90;;;;;;5054359;28;20480;-75
2023/08/22 05:19:07;;;;;;;14.70;13.40;;;22.40;99.90;;;;;;5059340;28;20506;-78
2023/08/22 05:21:42;;;;;;;15.80;14.20;;;22.40;99.90;;;;;;5041566;28;20527;-76
2023/08/22 05:24:12;;;;;;;15.47;14.10;;;22.40;99.90;;;;;;5057340;28;20452;-78
2023/08/22 05:29:41;;;;;;;13.07;11.77;;;22.50;99.90;;;;;;5054376;28;20583;-76
2023/08/22 05:32:23;;;;;;;13.30;11.50;;;22.60;99.90;;;;;;5058407;28;20431;-77
2023/08/22 05:34:55;;;;;;;12.73;11.47;;;22.60;99.90;;;;;;5056744;28;20441;-76
2023/08/22 05:37:30;;;;;;;13.30;11.83;;;22.70;99.90;;;;;;5057329;28;21052;-75
2023/08/22 05:40:00;;;;;;;12.97;10.70;;;22.70;99.90;;;;;;5057136;28;20469;-80
2023/08/22 05:42:30;;;;;;;13.30;12.07;;;22.80;99.90;;;;;;5058023;28;20473;-75
2023/08/22 05:45:01;;;;;;;13.63;12.27;;;22.90;99.90;;;;;;5058141;28;20429;-78
2023/08/22 05:47:35;;;;;;;10.10;9.20;;;23.00;99.90;;;;;;5057745;28;20474;-77
2023/08/22 05:50:13;;;;;;;10.60;9.70;;;23.00;99.90;;;;;;5057991;28;20922;-77
2023/08/22 05:52:50;;;;;;;11.23;10.10;;;23.10;99.90;;;;;;5057991;28;20462;-77
2023/08/22 05:55:19;;;;;;;10.70;9.70;;;23.20;99.90;;;;;;5057193;28;20508;-79
2023/08/22 05:57:55;;;;;;;10.47;9.37;;;23.30;99.90;;;;;;5057774;28;20457;-76
2023/08/22 06:00:27;;;;;;;9.30;8.60;;;23.40;99.90;;;;;;5058256;28;20504;-77
2023/08/22 06:03:06;;;;;;;10.90;8.90;;;23.80;99.90;;;;;;5058377;28;20445;-78
2023/08/22 06:05:40;;;;;;;9.33;8.40;;;23.50;99.90;;;;;;5059217;28;20456;-79
2023/08/22 06:08:14;;;;;;;9.63;8.93;;;23.70;99.90;;;;;;5058411;28;20903;-76
2023/08/22 06:10:47;;;;;;;10.40;9.47;;;23.70;99.90;;;;;;5058879;28;20468;-77
2023/08/22 06:13:16;;;;;;;11.30;9.17;;;23.80;99.90;;;;;;5059801;28;20453;-77
2023/08/22 06:15:55;;;;;;;10.83;9.93;;;23.90;99.90;;;;;;5057873;28;20493;-78
2023/08/22 06:18:27;;;;;;;10.93;9.87;;;24.00;99.90;;;;;;5059951;28;21171;-77
2023/08/22 06:21:18;;;;;;;10.20;9.30;;;24.10;99.90;;;;;;5065601;28;20483;-76
2023/08/22 06:23:52;;;;;;;11.10;10.00;;;24.20;99.90;;;;;;5066911;28;20837;-77
2023/08/22 06:26:26;;;;;;;11.00;9.90;;;24.10;99.90;;;;;;5066463;28;20468;-77
2023/08/22 06:29:02;;;;;;;10.60;9.50;;;24.30;99.90;;;;;;5066016;28;20460;-77
2023/08/22 06:31:33;;;;;;;11.27;10.27;;;24.30;99.90;;;;;;5066591;28;20445;-78
2023/08/22 06:34:02;;;;;;;11.80;10.00;;;24.50;99.90;;;;;;5066842;28;20488;-76
2023/08/22 06:36:32;;;;;;;10.57;9.37;;;24.50;99.90;;;;;;5066081;28;20910;-77
2023/08/22 06:39:13;;;;;;;10.50;9.50;;;24.60;99.90;;;;;;5063335;28;20450;-79
2023/08/22 06:41:41;;;;;;;11.53;10.53;;;24.70;99.90;;;;;;5063518;28;20504;-75
2023/08/22 06:44:09;;;;;;;10.87;9.60;;;24.70;99.90;;;;;;5063869;28;20470;-77
2023/08/22 06:46:37;;;;;;;11.70;10.50;;;24.80;99.90;;;;;;5058973;28;20465;-77
2023/08/22 06:49:06;;;;;;;12.57;11.47;;;24.90;99.90;;;;;;5060508;28;20457;-77
2023/08/22 06:51:35;;;;;;;11.90;10.73;;;25.00;99.90;;;;;;5061083;28;20496;-77
2023/08/22 06:54:08;;;;;;;11.00;10.10;;;25.10;99.90;;;;;;5068063;28;20899;-77
2023/08/22 06:56:36;;;;;;;12.27;10.90;;;25.10;99.90;;;;;;5069426;28;20524;-77
2023/08/22 06:59:11;;;;;;;11.80;10.80;;;25.20;99.90;;;;;;5069787;28;20453;-77
2023/08/22 07:01:40;;;;;;;12.53;11.43;;;25.30;99.90;;;;;;5069195;28;20467;-77
2023/08/22 07:04:08;;;;;;;14.00;9.87;;;25.40;99.90;;;;;;5066200;28;20454;-76
2023/08/22 07:06:43;;;;;;;10.70;9.70;;;25.40;99.90;;;;;;5064822;28;20564;-77
2023/08/22 07:11:56;;;;;;;11.20;10.07;;;25.60;99.90;;;;;;5069952;28;20513;-77
2023/08/22 07:14:35;;;;;;;12.57;10.23;;;25.70;99.90;;;;;;5071701;28;20457;-79
2023/08/22 07:17:14;;;;;;;10.90;10.00;;;25.80;99.90;;;;;;5068150;28;20473;-77
2023/08/22 07:19:48;;;;;;;11.00;10.00;;;25.90;99.90;;;;;;5069151;28;20489;-79
2023/08/22 07:22:18;;;;;;;11.50;10.50;;;25.90;99.90;;;;;;5068920;28;20446;-77
2023/08/22 07:24:50;;;;;;;10.43;9.50;;;26.10;99.90;;;;;;5069284;28;20429;-78
2023/08/22 07:27:25;;;;;;;12.90;10.50;;;26.10;99.90;;;;;;5072046;28;20453;-80
2023/08/22 07:29:54;;;;;;;11.60;10.40;;;26.20;99.90;;;;;;5072886;28;20473;-78
2023/08/22 07:32:26;;;;;;;10.50;9.60;;;26.30;99.90;;;;;;5071764;28;20452;-78
2023/08/22 07:34:57;;;;;;;11.30;10.23;;;26.30;99.90;;;;;;5073671;28;20441;-76
2023/08/22 07:37:29;;;;;;;11.60;10.53;;;26.40;99.90;;;;;;5071346;28;20445;-78
2023/08/22 07:40:06;;;;;;;10.83;10.03;;;26.50;99.90;;;;;;5070600;28;20479;-77
2023/08/22 07:42:42;;;;;;;11.43;10.33;;;26.50;99.90;;;;;;5069400;28;20450;-75
2023/08/22 07:45:15;;;;;;;11.53;10.37;;;26.70;99.90;;;;;;5074515;28;20919;-77
2023/08/22 07:47:51;;;;;;;11.00;10.00;;;26.70;99.90;;;;;;5074786;28;20476;-77
2023/08/22 07:50:26;;;;;;;11.77;10.67;;;26.80;99.90;;;;;;5069905;28;20460;-77
2023/08/22 07:56:28;;;;;;;7.50;6.90;;;27.00;99.90;;;;;;5041100;28;20536;-77
2023/08/22 07:58:59;;;;;;;7.97;7.27;;;27.20;99.90;;;;;;5059868;28;20605;-78
2023/08/22 08:01:42;;;;;;;6.93;6.43;;;27.30;99.90;;;;;;5057422;28;20905;-76
2023/08/22 08:04:21;;;;;;;8.03;7.40;;;27.30;99.90;;;;;;5058003;28;20531;-77
2023/08/22 08:07:02;;;;;;;7.50;6.80;;;27.40;99.90;;;;;;5059520;28;20916;-76
2023/08/22 08:09:41;;;;;;;7.80;7.00;;;27.60;99.90;;;;;;5061590;28;20452;-79
2023/08/22 08:12:14;;;;;;;7.23;6.60;;;27.60;99.90;;;;;;5057260;28;20848;-77
2023/08/22 08:14:45;;;;;;;7.30;6.73;;;27.60;99.90;;;;;;5056035;28;20475;-77
2023/08/22 08:17:25;;;;;;;6.37;5.90;;;27.80;99.90;;;;;;5056687;28;20561;-77
2023/08/22 08:23:39;;;;;;;6.40;5.77;;;28.20;99.90;;;;;;5057524;28;20445;-80
2023/08/22 08:33:02;;;;;;;6.00;5.50;;;28.50;99.90;;;;;;5059658;28;20434;-76
2023/08/22 08:35:42;;;;;;;5.87;5.37;;;28.70;99.90;;;;;;5024487;28;20446;-77
2023/08/22 08:41:09;;;;;;;6.27;5.77;;;28.90;99.90;;;;;;4995973;28;20484;-77
2023/08/22 08:44:03;;;;;;;6.23;5.60;;;29.20;99.90;;;;;;5056712;28;20457;-76
2023/08/22 08:50:12;;;;;;;6.47;5.60;;;29.50;99.90;;;;;;5043019;28;20479;-76
2023/08/22 08:52:45;;;;;;;5.90;5.50;;;29.70;99.90;;;;;;5054008;28;20553;-76
2023/08/22 08:55:14;;;;;;;6.30;5.70;;;29.80;99.90;;;;;;5057398;28;20887;-76
2023/08/22 08:57:56;;;;;;;6.27;5.73;;;29.90;99.90;;;;;;5055818;28;20577;-76
2023/08/22 09:01:04;;;;;;;;;;;;;;;;;;;;;
2023/08/22 09:04:25;;;;;;;6.77;6.07;;;30.50;99.90;;;;;;5055485;28;20430;-76
2023/08/22 09:07:28;;;;;;;6.43;5.93;;;30.80;99.90;;;;;;4956177;29;20488;-77
2023/08/22 09:13:36;;;;;;;5.90;5.37;;;30.60;99.90;;;;;;5054002;28;21027;-75
2023/08/22 09:16:27;;;;;;;5.90;5.50;;;30.70;99.90;;;;;;5056183;28;20568;-78
2023/08/22 09:19:32;;;;;;;5.77;5.30;;;30.60;99.90;;;;;;5055557;28;20560;-77
2023/08/22 09:22:36;;;;;;;5.90;5.50;;;31.20;99.90;;;;;;5053126;28;20473;-77
2023/08/22 09:26:02;;;;;;;6.80;6.00;;;31.10;99.90;;;;;;4978016;28;20476;-78
2023/08/22 09:28:40;;;;;;;6.20;5.70;;;30.80;99.90;;;;;;5036668;28;20500;-77
2023/08/22 09:31:28;;;;;;;9.50;6.00;;;31.50;99.90;;;;;;5059719;28;20446;-78
2023/08/22 09:34:07;;;;;;;7.60;5.33;;;31.80;99.90;;;;;;5059715;28;20465;-77
2023/08/22 09:36:35;;;;;;;5.73;5.33;;;31.90;99.90;;;;;;5060809;28;20521;-79
2023/08/22 09:39:05;;;;;;;5.53;5.10;;;32.50;99.90;;;;;;5060141;28;20480;-78
2023/08/22 09:41:34;;;;;;;8.50;5.90;;;32.70;99.90;;;;;;5059191;28;20477;-79
2023/08/22 09:44:02;;;;;;;6.60;5.70;;;33.00;99.90;;;;;;5059229;28;20861;-78
2023/08/22 09:46:36;;;;;;;6.67;6.17;;;33.00;99.90;;;;;;5059380;28;20473;-80
2023/08/22 09:49:08;;;;;;;6.73;6.33;;;32.80;99.90;;;;;;5058399;28;20492;-77
2023/08/22 09:51:41;;;;;;;5.50;5.00;;;32.30;99.90;;;;;;5059015;28;20450;-77
2023/08/22 09:54:14;;;;;;;6.20;5.43;;;32.70;99.90;;;;;;5058683;28;20480;-79
2023/08/22 09:56:58;;;;;;;6.00;5.60;;;32.90;99.90;;;;;;5058952;28;20480;-79
2023/08/22 10:02:35;;;;;;;5.90;5.40;;;33.80;99.90;;;;;;5041744;28;20520;-80
2023/08/22 10:05:28;;;;;;;5.33;5.00;;;33.20;99.90;;;;;;5057627;28;20454;-79
2023/08/22 10:08:24;;;;;;;5.87;5.47;;;33.40;99.90;;;;;;5059070;28;20446;-80
2023/08/22 10:11:02;;;;;;;5.50;5.00;;;32.60;99.90;;;;;;5057207;28;20442;-78
2023/08/22 10:16:18;;;;;;;5.17;4.80;;;33.30;99.90;;;;;;5058279;28;20507;-81
2023/08/22 10:18:47;;;;;;;4.93;4.53;;;33.10;99.90;;;;;;5057051;28;20540;-79
2023/08/22 10:21:28;;;;;;;5.80;5.30;;;33.50;99.90;;;;;;5057920;28;20560;-81
2023/08/22 10:24:09;;;;;;;5.83;5.27;;;34.00;99.90;;;;;;5057459;28;20465;-80
2023/08/22 10:26:59;;;;;;;5.47;4.93;;;34.30;99.90;;;;;;5058650;28;20461;-78
2023/08/22 10:29:37;;;;;;;4.90;4.50;;;34.50;99.90;;;;;;5057044;28;20491;-79
2023/08/22 10:32:30;;;;;;;4.90;4.50;;;34.40;99.90;;;;;;5057206;28;20948;-80
2023/08/22 10:35:28;;;;;;;5.77;5.37;;;34.80;99.90;;;;;;5058022;28;20533;-79
2023/08/22 10:38:05;;;;;;;5.20;4.77;;;34.40;99.90;;;;;;5058483;28;20851;-80
2023/08/22 10:40:34;;;;;;;5.37;4.80;;;33.80;99.90;;;;;;5057115;28;20540;-80
2023/08/22 10:43:15;;;;;;;6.97;5.03;;;34.40;99.90;;;;;;5058512;28;20456;-81
2023/08/22 10:46:05;;;;;;;;;;;;;;;;;;;;;
2023/08/22 10:48:33;;;;;;;7.03;5.27;;;35.70;99.90;;;;;;5056168;28;20584;-79
2023/08/22 10:51:08;;;;;;;6.10;5.20;;;35.70;99.90;;;;;;5050748;28;20866;-79
2023/08/22 10:53:49;;;;;;;5.17;4.77;;;35.90;99.90;;;;;;5051689;28;20445;-78
2023/08/22 10:56:28;;;;;;;4.90;4.40;;;35.50;99.90;;;;;;5059332;28;21003;-81
2023/08/22 10:59:14;;;;;;;6.23;5.70;;;35.40;99.90;;;;;;5063695;28;20945;-78
2023/08/22 11:01:45;;;;;;;5.03;4.67;;;35.10;99.90;;;;;;5066400;28;20501;-80
2023/08/22 11:04:16;;;;;;;5.73;4.67;;;34.90;99.90;;;;;;5062818;28;20448;-81
2023/08/22 11:07:10;;;;;;;5.63;5.23;;;34.40;99.90;;;;;;5062254;28;20468;-83
2023/08/22 11:13:21;;;;;;;6.47;5.47;;;35.00;99.90;;;;;;5062827;28;20426;-81
2023/08/22 11:15:55;;;;;;;4.80;4.50;;;34.70;99.90;;;;;;5062968;28;20489;-78
2023/08/22 11:18:31;;;;;;;4.87;4.57;;;35.50;99.90;;;;;;5060513;28;20957;-81
2023/08/22 11:21:33;;;;;;;4.60;4.37;;;35.50;99.90;;;;;;5058524;28;20456;-80
2023/08/22 11:24:11;;;;;;;5.00;4.57;;;35.80;99.90;;;;;;5049000;28;20448;-80
2023/08/22 11:26:50;;;;;;;4.20;4.00;;;36.00;99.90;;;;;;5056449;28;20468;-78
2023/08/22 11:29:34;;;;;;;5.20;4.67;;;35.80;99.90;;;;;;5057027;28;20531;-78
2023/08/22 11:32:21;;;;;;;5.40;5.00;;;35.70;99.90;;;;;;5056994;28;21018;-80
2023/08/22 11:34:55;;;;;;;5.73;5.17;;;34.40;99.90;;;;;;5056751;28;20479;-78
2023/08/22 11:57:18;;;;;;;5.10;4.40;;;35.40;99.90;;;;;;5052841;28;20547;-78
2023/08/22 11:59:50;;;;;;;5.20;4.80;;;36.60;99.60;;;;;;5058483;28;20525;-78
2023/08/22 12:02:21;;;;;;;4.60;4.17;;;36.60;99.80;;;;;;5058991;28;20523;-76
2023/08/22 12:04:55;;;;;;;5.17;4.77;;;36.70;99.40;;;;;;5061282;28;20532;-76
2023/08/22 12:10:47;;;;;;;4.83;4.43;;;37.10;98.20;;;;;;5048650;28;20453;-77
2023/08/22 12:13:33;;;;;;;4.30;3.90;;;38.00;96.00;;;;;;5058451;28;20493;-79
2023/08/22 12:16:05;;;;;;;4.13;3.83;;;38.00;96.30;;;;;;5058912;28;20550;-80
2023/08/22 12:18:35;;;;;;;4.67;4.27;;;37.30;96.10;;;;;;5057575;28;20449;-78
2023/08/22 12:21:10;;;;;;;4.10;3.80;;;36.80;96.80;;;;;;5056333;28;20523;-78
2023/08/22 12:23:45;;;;;;;4.43;3.33;;;37.10;96.40;;;;;;5056389;28;20461;-79
2023/08/22 12:26:14;;;;;;;4.10;3.80;;;36.40;96.30;;;;;;5057023;28;20469;-77
2023/08/22 12:28:45;;;;;;;5.33;4.93;;;36.00;96.90;;;;;;5056948;28;20544;-77
2023/08/22 12:34:10;;;;;;;4.40;4.10;;;35.70;98.60;;;;;;5056385;28;20445;-78
2023/08/22 12:36:53;;;;;;;4.13;3.83;;;36.10;97.70;;;;;;5056673;28;20482;-79
2023/08/22 12:39:22;;;;;;;4.60;4.30;;;36.40;97.30;;;;;;5057786;28;20533;-77
2023/08/22 12:41:54;;;;;;;4.83;4.40;;;35.90;97.50;;;;;;5057122;28;20469;-78
2023/08/22 12:44:25;;;;;;;3.90;3.60;;;35.30;98.10;;;;;;5059613;28;20456;-79
2023/08/22 12:47:03;;;;;;;4.27;3.87;;;34.70;98.90;;;;;;5056803;28;20493;-80
2023/08/22 12:49:35;;;;;;;4.20;3.90;;;35.10;98.50;;;;;;5055473;28;20517;-77
2023/08/22 12:52:04;;;;;;;4.27;3.83;;;35.40;97.60;;;;;;5059731;28;20541;-78
2023/08/22 12:54:39;;;;;;;4.80;4.40;;;35.20;98.20;;;;;;5057217;28;20453;-80
2023/08/22 12:57:15;;;;;;;4.40;4.10;;;35.50;98.00;;;;;;5057121;28;20469;-79
2023/08/22 12:59:47;;;;;;;4.60;4.00;;;35.80;98.00;;;;;;5059761;28;20859;-77
2023/08/22 13:02:18;;;;;;;4.23;3.97;;;36.40;97.50;;;;;;5071442;28;20499;-79
2023/08/22 13:04:49;;;;;;;4.70;4.40;;;36.90;96.90;;;;;;5068956;28;20533;-77
2023/08/22 13:07:26;;;;;;;4.40;4.10;;;36.90;96.20;;;;;;5069686;28;20484;-79
2023/08/22 13:09:57;;;;;;;4.00;3.70;;;36.80;96.40;;;;;;5073270;28;20442;-78
2023/08/22 13:12:30;;;;;;;4.10;3.80;;;36.10;96.90;;;;;;5069989;28;20452;-79
2023/08/22 13:15:02;;;;;;;4.80;4.10;;;35.60;97.60;;;;;;5071667;28;20434;-77
2023/08/22 13:17:34;;;;;;;5.93;4.37;;;35.80;97.50;;;;;;5071316;28;20465;-76
2023/08/22 13:20:07;;;;;;;4.40;4.10;;;35.80;97.50;;;;;;5072559;28;20455;-79
2023/08/22 13:22:36;;;;;;;4.80;4.40;;;35.00;98.10;;;;;;5071343;28;20476;-78
2023/08/22 13:25:18;;;;;;;5.30;4.80;;;34.50;99.10;;;;;;5074238;28;20472;-77
2023/08/22 13:27:47;;;;;;;5.80;5.17;;;34.50;99.40;;;;;;5073256;28;20460;-78
2023/08/22 13:30:18;;;;;;;4.60;4.20;;;35.10;99.00;;;;;;5073824;28;20454;-78
2023/08/22 13:32:47;;;;;;;4.80;4.40;;;35.20;98.80;;;;;;5073110;28;20434;-79
2023/08/22 13:35:18;;;;;;;6.60;4.70;;;35.10;98.80;;;;;;5073087;28;20442;-78
2023/08/22 13:37:58;;;;;;;4.70;4.30;;;34.90;99.60;;;;;;5072278;28;20471;-78
2023/08/22 13:40:36;;;;;;;6.80;4.80;;;35.50;98.70;;;;;;5071705;28;20661;-79
2023/08/22 13:43:04;;;;;;;4.07;3.77;;;35.40;99.10;;;;;;5070943;28;20480;-78
2023/08/22 13:45:40;;;;;;;4.67;4.27;;;35.80;98.60;;;;;;5069622;28;20453;-78
2023/08/22 13:48:09;;;;;;;4.80;4.40;;;36.30;97.80;;;;;;5068793;28;20445;-78
2023/08/22 13:50:42;;;;;;;4.90;4.50;;;36.30;98.00;;;;;;5067471;28;20504;-76
2023/08/22 13:53:17;;;;;;;4.33;4.03;;;36.70;97.30;;;;;;5064005;28;20528;-78
2023/08/22 13:55:46;;;;;;;4.20;3.90;;;36.30;97.20;;;;;;5060345;28;20445;-76
2023/08/22 13:58:18;;;;;;;4.70;4.30;;;36.40;97.20;;;;;;5055666;28;20839;-78
2023/08/22 14:00:52;;;;;;;5.00;4.70;;;35.40;97.70;;;;;;5056849;28;20450;-81
2023/08/22 14:03:28;;;;;;;5.13;4.10;;;35.40;98.20;;;;;;5056189;28;20488;-76
2023/08/22 14:06:09;;;;;;;7.50;3.97;;;36.10;97.60;;;;;;5056743;28;20539;-77
2023/08/22 14:08:37;;;;;;;5.20;4.80;;;35.90;97.60;;;;;;5056996;28;20545;-77
2023/08/22 14:11:07;;;;;;;5.20;4.10;;;35.80;97.70;;;;;;5056686;28;20476;-78
2023/08/22 14:13:35;;;;;;;4.50;4.10;;;35.60;97.60;;;;;;5055670;28;20821;-80
2023/08/22 14:16:04;;;;;;;5.30;4.90;;;35.50;97.60;;;;;;5056107;28;20481;-77
2023/08/22 14:18:39;;;;;;;4.43;4.07;;;35.20;97.60;;;;;;5057062;28;20456;-77
2023/08/22 14:21:07;;;;;;;4.93;4.53;;;34.60;98.30;;;;;;5057616;28;20452;-78
2023/08/22 14:23:35;;;;;;;5.70;3.97;;;35.10;98.80;;;;;;5056443;28;20484;-76
2023/08/22 14:26:17;;;;;;;5.07;4.57;;;35.80;97.60;;;;;;5056494;28;20465;-78
2023/08/22 14:28:46;;;;;;;4.80;4.30;;;35.50;97.60;;;;;;5055187;28;20445;-78
2023/08/22 14:31:15;;;;;;;4.60;4.17;;;35.40;97.70;;;;;;5055338;28;20456;-76
2023/08/22 14:33:42;;;;;;;5.33;4.60;;;35.60;97.70;;;;;;5055852;28;20476;-78